sensor_id;sensor_type;location;lat;lon;timestamp;temperature;humidity
70708;SHT30;58277;47.316;18.908;2023-07-30T00:02:12;22.05;75.52
70708;SHT30;58277;47.316;18.908;2023-07-30T00:04:35;22.04;75.50
70708;SHT30;58277;47.316;18.908;2023-07-30T00:07:19;22.01;75.88
70708;SHT30;58277;47.316;18.908;2023-07-30T00:10:02;22.02;75.87
70708;SHT30;58277;47.316;18.908;2023-07-30T00:12:26;22.09;75.43
70708;SHT30;58277;47.316;18.908;2023-07-30T00:14:49;22.02;75.45
70708;SHT30;58277;47.316;18.908;2023-07-30T00:17:11;22.01;75.59
70708;SHT30;58277;47.316;18.908;2023-07-30T00:19:34;22.04;75.11
70708;SHT30;58277;47.316;18.908;2023-07-30T00:21:57;22.15;74.58
70708;SHT30;58277;47.316;18.908;2023-07-30T00:24:20;22.15;73.95
70708;SHT30;58277;47.316;18.908;2023-07-30T00:26:43;22.09;73.09
70708;SHT30;58277;47.316;18.908;2023-07-30T00:29:06;22.16;72.84
70708;SHT30;58277;47.316;18.908;2023-07-30T00:31:29;22.16;72.41
70708;SHT30;58277;47.316;18.908;2023-07-30T00:33:53;22.15;72.31
70708;SHT30;58277;47.316;18.908;2023-07-30T00:36:16;22.18;72.18
70708;SHT30;58277;47.316;18.908;2023-07-30T00:38:39;22.22;72.10
70708;SHT30;58277;47.316;18.908;2023-07-30T00:41:02;22.25;71.76
70708;SHT30;58277;47.316;18.908;2023-07-30T00:43:25;22.25;71.79
70708;SHT30;58277;47.316;18.908;2023-07-30T00:45:48;22.28;71.49
70708;SHT30;58277;47.316;18.908;2023-07-30T00:48:12;22.28;71.54
70708;SHT30;58277;47.316;18.908;2023-07-30T00:50:35;22.36;71.47
70708;SHT30;58277;47.316;18.908;2023-07-30T00:52:58;22.35;71.18
70708;SHT30;58277;47.316;18.908;2023-07-30T00:55:21;22.36;71.09
70708;SHT30;58277;47.316;18.908;2023-07-30T00:57:44;22.34;70.99
70708;SHT30;58277;47.316;18.908;2023-07-30T01:00:08;22.31;70.83
70708;SHT30;58277;47.316;18.908;2023-07-30T01:02:31;22.36;70.52
70708;SHT30;58277;47.316;18.908;2023-07-30T01:04:54;22.32;70.69
70708;SHT30;58277;47.316;18.908;2023-07-30T01:07:18;22.25;71.22
70708;SHT30;58277;47.316;18.908;2023-07-30T01:09:41;22.22;71.25
70708;SHT30;58277;47.316;18.908;2023-07-30T01:12:05;22.18;71.59
70708;SHT30;58277;47.316;18.908;2023-07-30T01:14:28;22.15;71.92
70708;SHT30;58277;47.316;18.908;2023-07-30T01:16:51;22.16;72.13
70708;SHT30;58277;47.316;18.908;2023-07-30T01:19:14;22.22;71.91
70708;SHT30;58277;47.316;18.908;2023-07-30T01:21:37;22.24;72.08
70708;SHT30;58277;47.316;18.908;2023-07-30T01:24:00;22.15;72.32
70708;SHT30;58277;47.316;18.908;2023-07-30T01:26:25;22.14;72.49
70708;SHT30;58277;47.316;18.908;2023-07-30T01:28:52;22.09;72.95
70708;SHT30;58277;47.316;18.908;2023-07-30T01:31:17;22.09;72.95
70708;SHT30;58277;47.316;18.908;2023-07-30T01:33:41;21.98;73.49
70708;SHT30;58277;47.316;18.908;2023-07-30T01:36:04;21.90;73.87
70708;SHT30;58277;47.316;18.908;2023-07-30T01:38:29;21.83;74.38
70708;SHT30;58277;47.316;18.908;2023-07-30T01:40:54;21.76;74.69
70708;SHT30;58277;47.316;18.908;2023-07-30T01:43:16;21.78;74.67
70708;SHT30;58277;47.316;18.908;2023-07-30T01:45:39;21.70;74.98
70708;SHT30;58277;47.316;18.908;2023-07-30T01:48:03;21.64;75.26
70708;SHT30;58277;47.316;18.908;2023-07-30T01:50:26;21.53;75.75
70708;SHT30;58277;47.316;18.908;2023-07-30T01:52:48;21.46;75.98
70708;SHT30;58277;47.316;18.908;2023-07-30T01:55:11;21.43;75.94
70708;SHT30;58277;47.316;18.908;2023-07-30T01:57:34;21.42;76.21
70708;SHT30;58277;47.316;18.908;2023-07-30T01:59:56;21.38;76.31
70708;SHT30;58277;47.316;18.908;2023-07-30T02:02:19;21.40;76.30
70708;SHT30;58277;47.316;18.908;2023-07-30T02:04:42;21.43;76.02
70708;SHT30;58277;47.316;18.908;2023-07-30T02:07:05;21.42;76.01
70708;SHT30;58277;47.316;18.908;2023-07-30T02:09:27;21.39;76.03
70708;SHT30;58277;47.316;18.908;2023-07-30T02:11:50;21.38;76.04
70708;SHT30;58277;47.316;18.908;2023-07-30T02:14:13;21.39;75.89
70708;SHT30;58277;47.316;18.908;2023-07-30T02:16:36;21.43;75.71
70708;SHT30;58277;47.316;18.908;2023-07-30T02:18:59;21.45;75.75
70708;SHT30;58277;47.316;18.908;2023-07-30T02:21:21;21.46;75.74
70708;SHT30;58277;47.316;18.908;2023-07-30T02:23:44;21.47;75.64
70708;SHT30;58277;47.316;18.908;2023-07-30T02:26:07;21.51;75.44
70708;SHT30;58277;47.316;18.908;2023-07-30T02:28:30;21.57;75.32
70708;SHT30;58277;47.316;18.908;2023-07-30T02:30:53;21.53;75.25
70708;SHT30;58277;47.316;18.908;2023-07-30T02:33:15;21.54;75.05
70708;SHT30;58277;47.316;18.908;2023-07-30T02:35:38;21.46;75.18
70708;SHT30;58277;47.316;18.908;2023-07-30T02:38:01;21.46;75.22
70708;SHT30;58277;47.316;18.908;2023-07-30T02:40:23;21.46;75.12
70708;SHT30;58277;47.316;18.908;2023-07-30T02:42:46;21.47;75.13
70708;SHT30;58277;47.316;18.908;2023-07-30T02:45:09;21.40;75.37
70708;SHT30;58277;47.316;18.908;2023-07-30T02:47:32;21.45;75.19
70708;SHT30;58277;47.316;18.908;2023-07-30T02:49:55;21.53;75.04
70708;SHT30;58277;47.316;18.908;2023-07-30T02:52:18;21.56;74.72
70708;SHT30;58277;47.316;18.908;2023-07-30T02:54:40;21.50;74.72
70708;SHT30;58277;47.316;18.908;2023-07-30T02:57:03;21.47;74.87
70708;SHT30;58277;47.316;18.908;2023-07-30T02:59:27;21.47;75.23
70708;SHT30;58277;47.316;18.908;2023-07-30T03:01:50;21.47;75.50
70708;SHT30;58277;47.316;18.908;2023-07-30T03:04:13;21.43;75.68
70708;SHT30;58277;47.316;18.908;2023-07-30T03:06:36;21.30;75.75
70708;SHT30;58277;47.316;18.908;2023-07-30T03:08:58;21.23;75.93
70708;SHT30;58277;47.316;18.908;2023-07-30T03:11:22;21.12;76.23
70708;SHT30;58277;47.316;18.908;2023-07-30T03:13:45;21.21;76.10
70708;SHT30;58277;47.316;18.908;2023-07-30T03:16:07;21.19;76.12
70708;SHT30;58277;47.316;18.908;2023-07-30T03:18:30;21.21;76.12
70708;SHT30;58277;47.316;18.908;2023-07-30T03:21:00;21.30;75.64
70708;SHT30;58277;47.316;18.908;2023-07-30T03:23:23;21.40;75.17
70708;SHT30;58277;47.316;18.908;2023-07-30T03:25:45;21.47;74.95
70708;SHT30;58277;47.316;18.908;2023-07-30T03:28:08;21.50;74.79
70708;SHT30;58277;47.316;18.908;2023-07-30T03:30:31;21.54;74.62
70708;SHT30;58277;47.316;18.908;2023-07-30T03:32:53;21.63;74.16
70708;SHT30;58277;47.316;18.908;2023-07-30T03:35:16;21.67;73.98
70708;SHT30;58277;47.316;18.908;2023-07-30T03:37:39;21.76;73.76
70708;SHT30;58277;47.316;18.908;2023-07-30T03:40:02;21.84;73.31
70708;SHT30;58277;47.316;18.908;2023-07-30T03:42:25;21.88;73.28
70708;SHT30;58277;47.316;18.908;2023-07-30T03:44:48;21.94;73.01
70708;SHT30;58277;47.316;18.908;2023-07-30T03:47:10;22.01;72.70
70708;SHT30;58277;47.316;18.908;2023-07-30T03:49:33;22.05;72.56
70708;SHT30;58277;47.316;18.908;2023-07-30T03:51:56;22.01;72.81
70708;SHT30;58277;47.316;18.908;2023-07-30T03:54:19;22.07;72.55
70708;SHT30;58277;47.316;18.908;2023-07-30T03:56:42;22.09;72.36
70708;SHT30;58277;47.316;18.908;2023-07-30T03:59:05;22.01;72.58
70708;SHT30;58277;47.316;18.908;2023-07-30T04:01:28;22.00;72.88
70708;SHT30;58277;47.316;18.908;2023-07-30T04:03:51;22.07;72.84
70708;SHT30;58277;47.316;18.908;2023-07-30T04:06:14;22.18;72.63
70708;SHT30;58277;47.316;18.908;2023-07-30T04:08:38;22.15;72.57
70708;SHT30;58277;47.316;18.908;2023-07-30T04:11:01;22.19;72.74
70708;SHT30;58277;47.316;18.908;2023-07-30T04:13:24;22.11;73.07
70708;SHT30;58277;47.316;18.908;2023-07-30T04:15:49;22.09;73.33
70708;SHT30;58277;47.316;18.908;2023-07-30T04:18:12;22.05;73.54
70708;SHT30;58277;47.316;18.908;2023-07-30T04:20:35;22.15;73.31
70708;SHT30;58277;47.316;18.908;2023-07-30T04:22:58;22.21;73.22
70708;SHT30;58277;47.316;18.908;2023-07-30T04:25:21;22.16;73.11
70708;SHT30;58277;47.316;18.908;2023-07-30T04:27:44;22.18;73.01
70708;SHT30;58277;47.316;18.908;2023-07-30T04:30:07;22.24;72.83
70708;SHT30;58277;47.316;18.908;2023-07-30T04:32:30;22.35;72.30
70708;SHT30;58277;47.316;18.908;2023-07-30T04:34:53;22.49;71.78
70708;SHT30;58277;47.316;18.908;2023-07-30T04:37:16;22.53;71.40
70708;SHT30;58277;47.316;18.908;2023-07-30T04:39:38;22.60;71.13
70708;SHT30;58277;47.316;18.908;2023-07-30T04:42:02;22.67;70.98
70708;SHT30;58277;47.316;18.908;2023-07-30T04:44:25;22.72;71.08
70708;SHT30;58277;47.316;18.908;2023-07-30T04:46:51;22.84;70.74
70708;SHT30;58277;47.316;18.908;2023-07-30T04:49:13;22.90;70.78
70708;SHT30;58277;47.316;18.908;2023-07-30T04:51:36;22.94;70.39
70708;SHT30;58277;47.316;18.908;2023-07-30T04:54:01;23.03;70.45
70708;SHT30;58277;47.316;18.908;2023-07-30T04:56:24;23.10;69.94
70708;SHT30;58277;47.316;18.908;2023-07-30T04:58:49;23.07;69.59
70708;SHT30;58277;47.316;18.908;2023-07-30T05:01:11;23.07;69.82
70708;SHT30;58277;47.316;18.908;2023-07-30T05:03:34;23.12;70.03
70708;SHT30;58277;47.316;18.908;2023-07-30T05:05:57;23.24;69.69
70708;SHT30;58277;47.316;18.908;2023-07-30T05:08:19;23.22;69.12
70708;SHT30;58277;47.316;18.908;2023-07-30T05:10:42;23.18;69.65
70708;SHT30;58277;47.316;18.908;2023-07-30T05:13:05;23.17;69.71
70708;SHT30;58277;47.316;18.908;2023-07-30T05:15:27;23.24;69.43
70708;SHT30;58277;47.316;18.908;2023-07-30T05:17:50;23.32;68.90
70708;SHT30;58277;47.316;18.908;2023-07-30T05:20:13;23.31;69.07
70708;SHT30;58277;47.316;18.908;2023-07-30T05:22:36;23.42;68.80
70708;SHT30;58277;47.316;18.908;2023-07-30T05:24:58;23.49;67.67
70708;SHT30;58277;47.316;18.908;2023-07-30T05:27:21;23.62;68.24
70708;SHT30;58277;47.316;18.908;2023-07-30T05:29:44;23.63;68.26
70708;SHT30;58277;47.316;18.908;2023-07-30T05:32:10;23.68;67.67
70708;SHT30;58277;47.316;18.908;2023-07-30T05:34:33;23.65;67.53
70708;SHT30;58277;47.316;18.908;2023-07-30T05:36:55;23.62;67.78
70708;SHT30;58277;47.316;18.908;2023-07-30T05:39:18;23.62;67.93
70708;SHT30;58277;47.316;18.908;2023-07-30T05:41:41;23.72;67.29
70708;SHT30;58277;47.316;18.908;2023-07-30T05:44:03;23.75;67.09
70708;SHT30;58277;47.316;18.908;2023-07-30T05:46:26;23.86;67.10
70708;SHT30;58277;47.316;18.908;2023-07-30T05:48:48;23.90;67.04
70708;SHT30;58277;47.316;18.908;2023-07-30T05:51:11;23.99;66.62
70708;SHT30;58277;47.316;18.908;2023-07-30T05:53:34;24.12;66.39
70708;SHT30;58277;47.316;18.908;2023-07-30T05:55:57;24.14;66.25
70708;SHT30;58277;47.316;18.908;2023-07-30T05:58:19;24.17;66.69
70708;SHT30;58277;47.316;18.908;2023-07-30T06:00:42;24.20;66.75
70708;SHT30;58277;47.316;18.908;2023-07-30T06:03:05;24.28;66.65
70708;SHT30;58277;47.316;18.908;2023-07-30T06:05:28;24.28;66.69
70708;SHT30;58277;47.316;18.908;2023-07-30T06:07:51;24.31;66.73
70708;SHT30;58277;47.316;18.908;2023-07-30T06:10:14;24.33;66.92
70708;SHT30;58277;47.316;18.908;2023-07-30T06:12:37;24.34;66.63
70708;SHT30;58277;47.316;18.908;2023-07-30T06:14:59;24.47;66.24
70708;SHT30;58277;47.316;18.908;2023-07-30T06:17:22;24.61;65.95
70708;SHT30;58277;47.316;18.908;2023-07-30T06:19:45;24.79;65.52
70708;SHT30;58277;47.316;18.908;2023-07-30T06:22:07;24.93;65.24
70708;SHT30;58277;47.316;18.908;2023-07-30T06:24:30;25.06;64.32
70708;SHT30;58277;47.316;18.908;2023-07-30T06:26:57;25.13;63.80
70708;SHT30;58277;47.316;18.908;2023-07-30T06:29:19;25.30;62.95
70708;SHT30;58277;47.316;18.908;2023-07-30T06:31:42;25.50;62.28
70708;SHT30;58277;47.316;18.908;2023-07-30T06:34:05;25.73;61.63
70708;SHT30;58277;47.316;18.908;2023-07-30T06:36:27;25.95;60.92
70708;SHT30;58277;47.316;18.908;2023-07-30T06:38:50;26.25;59.63
70708;SHT30;58277;47.316;18.908;2023-07-30T06:41:13;26.65;58.50
70708;SHT30;58277;47.316;18.908;2023-07-30T06:43:36;26.98;57.03
70708;SHT30;58277;47.316;18.908;2023-07-30T06:45:58;27.50;56.02
70708;SHT30;58277;47.316;18.908;2023-07-30T06:48:21;27.98;55.02
70708;SHT30;58277;47.316;18.908;2023-07-30T06:50:44;27.67;54.92
70708;SHT30;58277;47.316;18.908;2023-07-30T06:53:07;27.29;54.90
70708;SHT30;58277;47.316;18.908;2023-07-30T06:55:30;27.04;55.79
70708;SHT30;58277;47.316;18.908;2023-07-30T06:57:52;26.68;57.23
70708;SHT30;58277;47.316;18.908;2023-07-30T07:00:15;26.47;58.23
70708;SHT30;58277;47.316;18.908;2023-07-30T07:02:44;26.18;59.24
70708;SHT30;58277;47.316;18.908;2023-07-30T07:05:08;25.81;60.60
70708;SHT30;58277;47.316;18.908;2023-07-30T07:07:30;25.61;61.61
70708;SHT30;58277;47.316;18.908;2023-07-30T07:09:53;25.34;62.94
70708;SHT30;58277;47.316;18.908;2023-07-30T07:12:16;25.20;63.65
70708;SHT30;58277;47.316;18.908;2023-07-30T07:14:39;25.09;64.27
70708;SHT30;58277;47.316;18.908;2023-07-30T07:17:03;24.99;64.51
70708;SHT30;58277;47.316;18.908;2023-07-30T07:19:26;24.78;65.38
70708;SHT30;58277;47.316;18.908;2023-07-30T07:21:48;24.72;65.16
70708;SHT30;58277;47.316;18.908;2023-07-30T07:24:11;24.67;65.41
70708;SHT30;58277;47.316;18.908;2023-07-30T07:26:34;24.65;65.72
70708;SHT30;58277;47.316;18.908;2023-07-30T07:28:57;24.62;65.82
70708;SHT30;58277;47.316;18.908;2023-07-30T07:31:19;24.62;65.64
70708;SHT30;58277;47.316;18.908;2023-07-30T07:33:45;24.64;66.09
70708;SHT30;58277;47.316;18.908;2023-07-30T07:36:08;24.65;66.12
70708;SHT30;58277;47.316;18.908;2023-07-30T07:38:31;24.64;65.82
70708;SHT30;58277;47.316;18.908;2023-07-30T07:40:54;24.64;66.02
70708;SHT30;58277;47.316;18.908;2023-07-30T07:43:17;24.57;66.03
70708;SHT30;58277;47.316;18.908;2023-07-30T07:45:40;24.42;66.08
70708;SHT30;58277;47.316;18.908;2023-07-30T07:48:02;24.31;66.63
70708;SHT30;58277;47.316;18.908;2023-07-30T07:50:25;24.23;67.34
70708;SHT30;58277;47.316;18.908;2023-07-30T07:52:48;24.16;67.60
70708;SHT30;58277;47.316;18.908;2023-07-30T07:55:10;24.13;67.97
70708;SHT30;58277;47.316;18.908;2023-07-30T07:57:33;24.10;68.67
70708;SHT30;58277;47.316;18.908;2023-07-30T07:59:59;24.00;69.49
70708;SHT30;58277;47.316;18.908;2023-07-30T08:02:23;23.87;70.74
70708;SHT30;58277;47.316;18.908;2023-07-30T08:04:46;23.73;71.19
70708;SHT30;58277;47.316;18.908;2023-07-30T08:07:09;23.66;71.83
70708;SHT30;58277;47.316;18.908;2023-07-30T08:09:32;23.70;72.28
70708;SHT30;58277;47.316;18.908;2023-07-30T08:11:55;23.51;72.92
70708;SHT30;58277;47.316;18.908;2023-07-30T08:14:17;23.51;73.57
70708;SHT30;58277;47.316;18.908;2023-07-30T08:16:43;23.45;74.22
70708;SHT30;58277;47.316;18.908;2023-07-30T08:19:06;23.44;73.74
70708;SHT30;58277;47.316;18.908;2023-07-30T08:21:28;23.22;74.50
70708;SHT30;58277;47.316;18.908;2023-07-30T08:23:51;23.18;75.24
70708;SHT30;58277;47.316;18.908;2023-07-30T08:26:15;23.14;75.51
70708;SHT30;58277;47.316;18.908;2023-07-30T08:28:37;23.06;75.16
70708;SHT30;58277;47.316;18.908;2023-07-30T08:31:01;23.06;76.30
70708;SHT30;58277;47.316;18.908;2023-07-30T08:33:26;23.07;76.68
70708;SHT30;58277;47.316;18.908;2023-07-30T08:35:49;23.04;77.49
70708;SHT30;58277;47.316;18.908;2023-07-30T08:38:12;23.00;77.45
70708;SHT30;58277;47.316;18.908;2023-07-30T08:40:34;22.96;76.70
70708;SHT30;58277;47.316;18.908;2023-07-30T08:42:57;22.83;77.34
70708;SHT30;58277;47.316;18.908;2023-07-30T08:45:20;22.83;77.79
70708;SHT30;58277;47.316;18.908;2023-07-30T08:47:44;22.97;77.26
70708;SHT30;58277;47.316;18.908;2023-07-30T08:50:07;23.03;77.82
70708;SHT30;58277;47.316;18.908;2023-07-30T08:52:30;22.94;78.29
70708;SHT30;58277;47.316;18.908;2023-07-30T08:54:55;22.97;78.02
70708;SHT30;58277;47.316;18.908;2023-07-30T08:57:20;22.84;77.87
70708;SHT30;58277;47.316;18.908;2023-07-30T09:00:00;22.93;77.84
70708;SHT30;58277;47.316;18.908;2023-07-30T09:02:50;22.94;77.67
70708;SHT30;58277;47.316;18.908;2023-07-30T09:05:14;22.94;77.02
70708;SHT30;58277;47.316;18.908;2023-07-30T09:07:37;22.99;77.59
70708;SHT30;58277;47.316;18.908;2023-07-30T09:10:00;23.06;77.14
70708;SHT30;58277;47.316;18.908;2023-07-30T09:12:29;23.17;78.97
70708;SHT30;58277;47.316;18.908;2023-07-30T09:14:53;23.15;78.14
70708;SHT30;58277;47.316;18.908;2023-07-30T09:17:19;23.21;77.39
70708;SHT30;58277;47.316;18.908;2023-07-30T09:19:41;23.21;78.23
70708;SHT30;58277;47.316;18.908;2023-07-30T09:22:07;23.27;78.59
70708;SHT30;58277;47.316;18.908;2023-07-30T09:24:30;23.25;78.28
70708;SHT30;58277;47.316;18.908;2023-07-30T09:26:52;23.24;78.88
70708;SHT30;58277;47.316;18.908;2023-07-30T09:29:15;23.31;79.03
70708;SHT30;58277;47.316;18.908;2023-07-30T09:34:15;23.48;77.34
70708;SHT30;58277;47.316;18.908;2023-07-30T09:36:38;23.55;76.45
70708;SHT30;58277;47.316;18.908;2023-07-30T09:39:00;23.42;76.99
70708;SHT30;58277;47.316;18.908;2023-07-30T09:41:23;23.41;76.00
70708;SHT30;58277;47.316;18.908;2023-07-30T09:43:46;23.37;77.20
70708;SHT30;58277;47.316;18.908;2023-07-30T09:46:09;23.41;78.13
70708;SHT30;58277;47.316;18.908;2023-07-30T09:48:33;23.28;78.42
70708;SHT30;58277;47.316;18.908;2023-07-30T09:51:00;23.10;79.47
70708;SHT30;58277;47.316;18.908;2023-07-30T09:53:26;23.14;80.42
70708;SHT30;58277;47.316;18.908;2023-07-30T09:55:49;23.29;79.59
70708;SHT30;58277;47.316;18.908;2023-07-30T09:58:12;23.27;78.70
70708;SHT30;58277;47.316;18.908;2023-07-30T10:00:34;23.27;79.40
70708;SHT30;58277;47.316;18.908;2023-07-30T10:02:58;23.37;79.09
70708;SHT30;58277;47.316;18.908;2023-07-30T10:05:25;23.51;78.52
70708;SHT30;58277;47.316;18.908;2023-07-30T10:07:59;23.63;77.87
70708;SHT30;58277;47.316;18.908;2023-07-30T10:10:24;23.76;77.76
70708;SHT30;58277;47.316;18.908;2023-07-30T10:12:47;23.96;77.68
70708;SHT30;58277;47.316;18.908;2023-07-30T10:15:11;24.03;77.79
70708;SHT30;58277;47.316;18.908;2023-07-30T10:17:33;24.03;77.54
70708;SHT30;58277;47.316;18.908;2023-07-30T10:19:56;23.97;76.93
70708;SHT30;58277;47.316;18.908;2023-07-30T10:22:21;24.03;77.50
70708;SHT30;58277;47.316;18.908;2023-07-30T10:25:04;24.12;76.78
70708;SHT30;58277;47.316;18.908;2023-07-30T10:27:41;24.16;77.25
70708;SHT30;58277;47.316;18.908;2023-07-30T10:30:13;24.27;77.20
70708;SHT30;58277;47.316;18.908;2023-07-30T10:33:03;24.30;77.64
70708;SHT30;58277;47.316;18.908;2023-07-30T10:38:29;24.38;76.93
70708;SHT30;58277;47.316;18.908;2023-07-30T10:41:10;24.52;76.29
70708;SHT30;58277;47.316;18.908;2023-07-30T10:43:47;24.78;75.86
70708;SHT30;58277;47.316;18.908;2023-07-30T10:46:11;24.88;75.43
70708;SHT30;58277;47.316;18.908;2023-07-30T10:48:55;25.13;75.62
70708;SHT30;58277;47.316;18.908;2023-07-30T10:51:38;25.03;73.99
70708;SHT30;58277;47.316;18.908;2023-07-30T10:54:05;24.86;73.93
70708;SHT30;58277;47.316;18.908;2023-07-30T10:56:28;25.05;73.11
70708;SHT30;58277;47.316;18.908;2023-07-30T10:58:52;25.20;74.58
70708;SHT30;58277;47.316;18.908;2023-07-30T11:01:15;25.37;73.49
70708;SHT30;58277;47.316;18.908;2023-07-30T11:03:38;25.44;73.99
70708;SHT30;58277;47.316;18.908;2023-07-30T11:06:02;25.48;71.71
70708;SHT30;58277;47.316;18.908;2023-07-30T11:08:42;25.60;71.33
70708;SHT30;58277;47.316;18.908;2023-07-30T11:11:08;25.74;71.29
70708;SHT30;58277;47.316;18.908;2023-07-30T11:13:40;25.75;71.21
70708;SHT30;58277;47.316;18.908;2023-07-30T11:16:07;25.74;71.56
70708;SHT30;58277;47.316;18.908;2023-07-30T11:18:31;25.73;70.61
70708;SHT30;58277;47.316;18.908;2023-07-30T11:21:08;25.75;71.61
70708;SHT30;58277;47.316;18.908;2023-07-30T11:23:32;25.61;71.92
70708;SHT30;58277;47.316;18.908;2023-07-30T11:26:00;25.51;71.70
70708;SHT30;58277;47.316;18.908;2023-07-30T11:31:01;25.36;71.78
70708;SHT30;58277;47.316;18.908;2023-07-30T11:33:24;25.26;71.79
70708;SHT30;58277;47.316;18.908;2023-07-30T11:35:47;25.22;70.59
70708;SHT30;58277;47.316;18.908;2023-07-30T11:38:10;25.08;71.03
70708;SHT30;58277;47.316;18.908;2023-07-30T11:40:33;24.88;70.94
70708;SHT30;58277;47.316;18.908;2023-07-30T11:42:56;24.78;71.61
70708;SHT30;58277;47.316;18.908;2023-07-30T11:45:22;24.73;71.89
70708;SHT30;58277;47.316;18.908;2023-07-30T11:47:46;24.67;71.89
70708;SHT30;58277;47.316;18.908;2023-07-30T11:50:08;24.68;71.84
70708;SHT30;58277;47.316;18.908;2023-07-30T11:52:31;24.65;72.14
70708;SHT30;58277;47.316;18.908;2023-07-30T11:55:01;24.57;72.84
70708;SHT30;58277;47.316;18.908;2023-07-30T11:57:35;24.62;72.47
70708;SHT30;58277;47.316;18.908;2023-07-30T11:59:58;24.57;72.97
70708;SHT30;58277;47.316;18.908;2023-07-30T12:02:21;24.50;72.72
70708;SHT30;58277;47.316;18.908;2023-07-30T12:04:44;24.42;71.55
70708;SHT30;58277;47.316;18.908;2023-07-30T12:07:22;24.50;71.35
70708;SHT30;58277;47.316;18.908;2023-07-30T12:09:46;24.51;71.11
70708;SHT30;58277;47.316;18.908;2023-07-30T12:12:09;24.72;71.14
70708;SHT30;58277;47.316;18.908;2023-07-30T12:14:45;24.79;70.38
70708;SHT30;58277;47.316;18.908;2023-07-30T12:17:14;24.78;70.97
70708;SHT30;58277;47.316;18.908;2023-07-30T12:19:37;25.16;70.29
70708;SHT30;58277;47.316;18.908;2023-07-30T12:22:00;25.50;70.28
70708;SHT30;58277;47.316;18.908;2023-07-30T12:24:23;25.55;69.94
70708;SHT30;58277;47.316;18.908;2023-07-30T12:26:46;25.86;68.69
70708;SHT30;58277;47.316;18.908;2023-07-30T12:29:08;26.01;67.06
70708;SHT30;58277;47.316;18.908;2023-07-30T12:31:31;26.08;66.55
70708;SHT30;58277;47.316;18.908;2023-07-30T12:33:55;26.16;66.00
70708;SHT30;58277;47.316;18.908;2023-07-30T12:36:18;26.32;65.46
70708;SHT30;58277;47.316;18.908;2023-07-30T12:38:41;26.36;65.87
70708;SHT30;58277;47.316;18.908;2023-07-30T12:41:06;26.25;65.42
70708;SHT30;58277;47.316;18.908;2023-07-30T12:43:29;26.29;65.01
70708;SHT30;58277;47.316;18.908;2023-07-30T12:45:52;26.25;64.38
70708;SHT30;58277;47.316;18.908;2023-07-30T12:48:14;26.22;64.57
70708;SHT30;58277;47.316;18.908;2023-07-30T12:50:38;26.12;63.75
70708;SHT30;58277;47.316;18.908;2023-07-30T12:53:00;26.09;64.43
70708;SHT30;58277;47.316;18.908;2023-07-30T12:55:23;26.02;64.03
70708;SHT30;58277;47.316;18.908;2023-07-30T12:57:46;25.98;65.75
70708;SHT30;58277;47.316;18.908;2023-07-30T13:00:09;26.15;65.63
70708;SHT30;58277;47.316;18.908;2023-07-30T13:02:32;26.26;64.94
70708;SHT30;58277;47.316;18.908;2023-07-30T13:04:59;26.44;64.76
70708;SHT30;58277;47.316;18.908;2023-07-30T13:07:21;26.61;64.49
70708;SHT30;58277;47.316;18.908;2023-07-30T13:09:45;26.74;63.81
70708;SHT30;58277;47.316;18.908;2023-07-30T13:12:08;26.94;63.77
70708;SHT30;58277;47.316;18.908;2023-07-30T13:14:31;27.09;62.67
70708;SHT30;58277;47.316;18.908;2023-07-30T13:16:54;27.12;62.37
70708;SHT30;58277;47.316;18.908;2023-07-30T13:19:16;27.35;60.49
70708;SHT30;58277;47.316;18.908;2023-07-30T13:21:39;27.56;59.08
70708;SHT30;58277;47.316;18.908;2023-07-30T13:24:02;27.39;58.07
70708;SHT30;58277;47.316;18.908;2023-07-30T13:26:25;26.71;59.02
70708;SHT30;58277;47.316;18.908;2023-07-30T13:28:48;26.83;59.69
70708;SHT30;58277;47.316;18.908;2023-07-30T13:31:11;27.11;59.35
70708;SHT30;58277;47.316;18.908;2023-07-30T13:33:34;27.35;58.83
70708;SHT30;58277;47.316;18.908;2023-07-30T13:35:56;27.71;57.86
70708;SHT30;58277;47.316;18.908;2023-07-30T13:38:19;27.89;58.31
70708;SHT30;58277;47.316;18.908;2023-07-30T13:40:44;28.01;57.24
70708;SHT30;58277;47.316;18.908;2023-07-30T13:43:06;27.87;57.17
70708;SHT30;58277;47.316;18.908;2023-07-30T13:45:29;27.94;57.29
70708;SHT30;58277;47.316;18.908;2023-07-30T13:47:52;27.94;56.67
70708;SHT30;58277;47.316;18.908;2023-07-30T13:50:15;27.84;56.65
70708;SHT30;58277;47.316;18.908;2023-07-30T13:52:37;27.73;56.92
70708;SHT30;58277;47.316;18.908;2023-07-30T13:55:00;27.87;56.57
70708;SHT30;58277;47.316;18.908;2023-07-30T13:57:23;27.69;56.58
70708;SHT30;58277;47.316;18.908;2023-07-30T13:59:46;27.49;56.80
70708;SHT30;58277;47.316;18.908;2023-07-30T14:02:09;27.42;57.45
70708;SHT30;58277;47.316;18.908;2023-07-30T14:04:32;27.08;58.76
70708;SHT30;58277;47.316;18.908;2023-07-30T14:06:55;26.84;59.91
70708;SHT30;58277;47.316;18.908;2023-07-30T14:09:17;26.92;59.45
70708;SHT30;58277;47.316;18.908;2023-07-30T14:11:40;26.91;59.79
70708;SHT30;58277;47.316;18.908;2023-07-30T14:14:07;26.83;59.73
70708;SHT30;58277;47.316;18.908;2023-07-30T14:16:30;26.49;60.32
70708;SHT30;58277;47.316;18.908;2023-07-30T14:18:52;26.41;60.59
70708;SHT30;58277;47.316;18.908;2023-07-30T14:21:15;26.18;61.92
70708;SHT30;58277;47.316;18.908;2023-07-30T14:23:38;26.43;61.36
70708;SHT30;58277;47.316;18.908;2023-07-30T14:26:01;26.43;61.03
70708;SHT30;58277;47.316;18.908;2023-07-30T14:28:24;26.47;60.94
70708;SHT30;58277;47.316;18.908;2023-07-30T14:30:47;26.57;59.84
70708;SHT30;58277;47.316;18.908;2023-07-30T14:33:13;26.30;60.65
70708;SHT30;58277;47.316;18.908;2023-07-30T14:35:35;26.41;60.84
70708;SHT30;58277;47.316;18.908;2023-07-30T14:38:00;26.41;61.45
70708;SHT30;58277;47.316;18.908;2023-07-30T14:40:23;26.46;61.59
70708;SHT30;58277;47.316;18.908;2023-07-30T14:42:46;26.44;61.13
70708;SHT30;58277;47.316;18.908;2023-07-30T14:45:09;26.50;61.64
70708;SHT30;58277;47.316;18.908;2023-07-30T14:47:32;26.57;61.65
70708;SHT30;58277;47.316;18.908;2023-07-30T14:49:55;26.51;62.24
70708;SHT30;58277;47.316;18.908;2023-07-30T14:52:18;26.12;62.80
70708;SHT30;58277;47.316;18.908;2023-07-30T14:54:41;26.19;63.05
70708;SHT30;58277;47.316;18.908;2023-07-30T14:57:04;26.26;62.61
70708;SHT30;58277;47.316;18.908;2023-07-30T14:59:27;26.29;62.50
70708;SHT30;58277;47.316;18.908;2023-07-30T15:01:50;26.03;63.06
70708;SHT30;58277;47.316;18.908;2023-07-30T15:04:13;26.16;63.06